sensor_id;sensor_type;location;lat;lon;timestamp;P1;durP1;ratioP1;P2;durP2;ratioP2
14294;SDS011;7231;59.370;18.016;2022-10-16T00:01:03;19.60;;;15.70;;
14294;SDS011;7231;59.370;18.016;2022-10-16T00:03:32;19.40;;;15.98;;
14294;SDS011;7231;59.370;18.016;2022-10-16T00:06:01;21.83;;;15.77;;
14294;SDS011;7231;59.370;18.016;2022-10-16T00:08:29;19.92;;;15.15;;
14294;SDS011;7231;59.370;18.016;2022-10-16T00:11:01;20.75;;;16.15;;
14294;SDS011;7231;59.370;18.016;2022-10-16T00:13:30;19.60;;;15.07;;
14294;SDS011;7231;59.370;18.016;2022-10-16T00:16:00;21.70;;;15.52;;
14294;SDS011;7231;59.370;18.016;2022-10-16T00:18:29;21.67;;;15.88;;
14294;SDS011;7231;59.370;18.016;2022-10-16T00:21:01;21.17;;;15.23;;
14294;SDS011;7231;59.370;18.016;2022-10-16T00:23:30;15.85;;;12.15;;
14294;SDS011;7231;59.370;18.016;2022-10-16T00:25:59;13.57;;;11.10;;
14294;SDS011;7231;59.370;18.016;2022-10-16T00:28:28;16.05;;;13.07;;
14294;SDS011;7231;59.370;18.016;2022-10-16T00:30:56;16.75;;;12.63;;
14294;SDS011;7231;59.370;18.016;2022-10-16T00:33:26;17.23;;;12.75;;
14294;SDS011;7231;59.370;18.016;2022-10-16T00:35:54;15.23;;;12.55;;
14294;SDS011;7231;59.370;18.016;2022-10-16T00:38:24;16.05;;;12.95;;
14294;SDS011;7231;59.370;18.016;2022-10-16T00:40:52;17.40;;;12.73;;
14294;SDS011;7231;59.370;18.016;2022-10-16T00:43:34;17.48;;;13.95;;
14294;SDS011;7231;59.370;18.016;2022-10-16T00:46:10;16.27;;;12.40;;
14294;SDS011;7231;59.370;18.016;2022-10-16T00:48:44;18.17;;;13.85;;
14294;SDS011;7231;59.370;18.016;2022-10-16T00:51:18;14.60;;;12.60;;
14294;SDS011;7231;59.370;18.016;2022-10-16T00:53:49;15.90;;;13.02;;
14294;SDS011;7231;59.370;18.016;2022-10-16T00:56:18;14.00;;;12.23;;
14294;SDS011;7231;59.370;18.016;2022-10-16T00:58:46;13.90;;;12.05;;
14294;SDS011;7231;59.370;18.016;2022-10-16T01:01:14;13.95;;;12.27;;
14294;SDS011;7231;59.370;18.016;2022-10-16T01:03:43;16.48;;;12.90;;
14294;SDS011;7231;59.370;18.016;2022-10-16T01:06:15;15.57;;;13.43;;
14294;SDS011;7231;59.370;18.016;2022-10-16T01:08:57;17.30;;;12.23;;
14294;SDS011;7231;59.370;18.016;2022-10-16T01:11:41;16.77;;;12.80;;
14294;SDS011;7231;59.370;18.016;2022-10-16T01:14:19;14.15;;;12.35;;
14294;SDS011;7231;59.370;18.016;2022-10-16T01:16:55;16.67;;;13.00;;
14294;SDS011;7231;59.370;18.016;2022-10-16T01:19:34;17.90;;;12.18;;
14294;SDS011;7231;59.370;18.016;2022-10-16T01:22:11;16.00;;;12.95;;
14294;SDS011;7231;59.370;18.016;2022-10-16T01:24:41;17.98;;;13.80;;
14294;SDS011;7231;59.370;18.016;2022-10-16T01:27:19;17.42;;;13.60;;
14294;SDS011;7231;59.370;18.016;2022-10-16T01:29:53;16.88;;;13.32;;
14294;SDS011;7231;59.370;18.016;2022-10-16T01:32:27;17.98;;;14.27;;
14294;SDS011;7231;59.370;18.016;2022-10-16T01:35:00;16.48;;;13.68;;
14294;SDS011;7231;59.370;18.016;2022-10-16T01:37:33;19.70;;;13.88;;
14294;SDS011;7231;59.370;18.016;2022-10-16T01:40:05;14.65;;;12.60;;
14294;SDS011;7231;59.370;18.016;2022-10-16T01:42:38;14.77;;;12.10;;
14294;SDS011;7231;59.370;18.016;2022-10-16T01:45:11;15.50;;;12.77;;
14294;SDS011;7231;59.370;18.016;2022-10-16T01:47:44;15.20;;;12.85;;
14294;SDS011;7231;59.370;18.016;2022-10-16T01:50:14;16.13;;;12.82;;
14294;SDS011;7231;59.370;18.016;2022-10-16T01:52:45;14.73;;;12.65;;
14294;SDS011;7231;59.370;18.016;2022-10-16T01:55:18;14.18;;;12.13;;
14294;SDS011;7231;59.370;18.016;2022-10-16T01:57:53;13.32;;;11.73;;
14294;SDS011;7231;59.370;18.016;2022-10-16T02:00:22;15.80;;;11.88;;
14294;SDS011;7231;59.370;18.016;2022-10-16T02:02:52;15.52;;;12.68;;
14294;SDS011;7231;59.370;18.016;2022-10-16T02:05:25;13.57;;;11.30;;
14294;SDS011;7231;59.370;18.016;2022-10-16T02:07:55;13.85;;;12.25;;
14294;SDS011;7231;59.370;18.016;2022-10-16T02:10:28;14.43;;;12.05;;
14294;SDS011;7231;59.370;18.016;2022-10-16T02:13:00;14.40;;;12.27;;
14294;SDS011;7231;59.370;18.016;2022-10-16T02:15:33;14.63;;;11.77;;
14294;SDS011;7231;59.370;18.016;2022-10-16T02:18:01;13.10;;;11.63;;
14294;SDS011;7231;59.370;18.016;2022-10-16T02:20:30;13.65;;;12.13;;
14294;SDS011;7231;59.370;18.016;2022-10-16T02:23:04;13.88;;;11.75;;
14294;SDS011;7231;59.370;18.016;2022-10-16T02:25:37;15.55;;;11.52;;
14294;SDS011;7231;59.370;18.016;2022-10-16T02:28:11;13.60;;;11.85;;
14294;SDS011;7231;59.370;18.016;2022-10-16T02:30:46;14.18;;;10.77;;
14294;SDS011;7231;59.370;18.016;2022-10-16T02:33:19;13.25;;;11.57;;
14294;SDS011;7231;59.370;18.016;2022-10-16T02:35:49;13.93;;;10.98;;
14294;SDS011;7231;59.370;18.016;2022-10-16T02:38:18;14.52;;;11.52;;
14294;SDS011;7231;59.370;18.016;2022-10-16T02:40:48;13.60;;;11.48;;
14294;SDS011;7231;59.370;18.016;2022-10-16T02:43:18;13.48;;;11.65;;
14294;SDS011;7231;59.370;18.016;2022-10-16T02:45:46;14.50;;;11.00;;
14294;SDS011;7231;59.370;18.016;2022-10-16T02:48:14;14.77;;;10.63;;
14294;SDS011;7231;59.370;18.016;2022-10-16T02:50:42;14.65;;;11.23;;
14294;SDS011;7231;59.370;18.016;2022-10-16T02:53:10;14.18;;;10.73;;
14294;SDS011;7231;59.370;18.016;2022-10-16T02:55:38;12.95;;;10.82;;
14294;SDS011;7231;59.370;18.016;2022-10-16T02:58:06;14.85;;;10.88;;
14294;SDS011;7231;59.370;18.016;2022-10-16T03:00:36;12.32;;;10.68;;
14294;SDS011;7231;59.370;18.016;2022-10-16T03:03:04;13.45;;;10.20;;
14294;SDS011;7231;59.370;18.016;2022-10-16T03:05:32;11.90;;;10.50;;
14294;SDS011;7231;59.370;18.016;2022-10-16T03:08:00;12.23;;;10.95;;
14294;SDS011;7231;59.370;18.016;2022-10-16T03:10:28;15.45;;;10.18;;
14294;SDS011;7231;59.370;18.016;2022-10-16T03:12:56;14.95;;;11.00;;
14294;SDS011;7231;59.370;18.016;2022-10-16T03:15:23;13.45;;;10.32;;
14294;SDS011;7231;59.370;18.016;2022-10-16T03:17:53;10.88;;;9.68;;
14294;SDS011;7231;59.370;18.016;2022-10-16T03:20:21;15.57;;;10.93;;
14294;SDS011;7231;59.370;18.016;2022-10-16T03:22:49;12.07;;;10.73;;
14294;SDS011;7231;59.370;18.016;2022-10-16T03:25:17;11.73;;;10.40;;
14294;SDS011;7231;59.370;18.016;2022-10-16T03:27:45;13.13;;;10.30;;
14294;SDS011;7231;59.370;18.016;2022-10-16T03:30:13;12.73;;;10.02;;
14294;SDS011;7231;59.370;18.016;2022-10-16T03:32:41;13.32;;;10.70;;
14294;SDS011;7231;59.370;18.016;2022-10-16T03:35:12;15.27;;;10.77;;
14294;SDS011;7231;59.370;18.016;2022-10-16T03:37:40;14.45;;;10.45;;
14294;SDS011;7231;59.370;18.016;2022-10-16T03:40:08;11.50;;;9.77;;
14294;SDS011;7231;59.370;18.016;2022-10-16T03:42:36;10.52;;;9.43;;
14294;SDS011;7231;59.370;18.016;2022-10-16T03:45:05;10.93;;;9.65;;
14294;SDS011;7231;59.370;18.016;2022-10-16T03:47:33;11.45;;;9.68;;
14294;SDS011;7231;59.370;18.016;2022-10-16T03:50:01;11.68;;;10.38;;
14294;SDS011;7231;59.370;18.016;2022-10-16T03:52:31;10.90;;;9.80;;
14294;SDS011;7231;59.370;18.016;2022-10-16T03:54:59;11.75;;;9.88;;
14294;SDS011;7231;59.370;18.016;2022-10-16T03:57:27;12.65;;;9.82;;
14294;SDS011;7231;59.370;18.016;2022-10-16T03:59:55;10.38;;;9.15;;
14294;SDS011;7231;59.370;18.016;2022-10-16T04:02:23;11.65;;;8.85;;
14294;SDS011;7231;59.370;18.016;2022-10-16T04:04:51;10.70;;;9.10;;
14294;SDS011;7231;59.370;18.016;2022-10-16T04:07:19;11.23;;;9.50;;
14294;SDS011;7231;59.370;18.016;2022-10-16T04:09:48;16.27;;;9.85;;
14294;SDS011;7231;59.370;18.016;2022-10-16T04:12:18;9.10;;;7.75;;
14294;SDS011;7231;59.370;18.016;2022-10-16T04:14:46;9.57;;;8.40;;
14294;SDS011;7231;59.370;18.016;2022-10-16T04:17:14;10.45;;;8.23;;
14294;SDS011;7231;59.370;18.016;2022-10-16T04:19:42;9.35;;;8.05;;
14294;SDS011;7231;59.370;18.016;2022-10-16T04:22:10;10.32;;;7.85;;
14294;SDS011;7231;59.370;18.016;2022-10-16T04:24:38;8.95;;;7.20;;
14294;SDS011;7231;59.370;18.016;2022-10-16T04:27:07;10.18;;;7.57;;
14294;SDS011;7231;59.370;18.016;2022-10-16T04:29:35;10.25;;;8.25;;
14294;SDS011;7231;59.370;18.016;2022-10-16T04:32:03;10.52;;;8.15;;
14294;SDS011;7231;59.370;18.016;2022-10-16T04:34:31;9.45;;;7.68;;
14294;SDS011;7231;59.370;18.016;2022-10-16T04:36:59;10.05;;;7.57;;
14294;SDS011;7231;59.370;18.016;2022-10-16T04:39:27;9.90;;;7.30;;
14294;SDS011;7231;59.370;18.016;2022-10-16T04:41:57;9.18;;;8.18;;
14294;SDS011;7231;59.370;18.016;2022-10-16T04:44:26;11.07;;;8.32;;
14294;SDS011;7231;59.370;18.016;2022-10-16T04:46:54;9.48;;;7.70;;
14294;SDS011;7231;59.370;18.016;2022-10-16T04:49:22;11.27;;;7.90;;
14294;SDS011;7231;59.370;18.016;2022-10-16T04:51:50;12.15;;;8.45;;
14294;SDS011;7231;59.370;18.016;2022-10-16T04:54:18;12.35;;;8.20;;
14294;SDS011;7231;59.370;18.016;2022-10-16T04:56:46;10.23;;;8.07;;
14294;SDS011;7231;59.370;18.016;2022-10-16T04:59:16;9.85;;;8.40;;
14294;SDS011;7231;59.370;18.016;2022-10-16T05:01:46;8.40;;;7.53;;
14294;SDS011;7231;59.370;18.016;2022-10-16T05:04:14;9.30;;;8.30;;
14294;SDS011;7231;59.370;18.016;2022-10-16T05:06:42;10.35;;;7.65;;
14294;SDS011;7231;59.370;18.016;2022-10-16T05:09:11;8.93;;;7.63;;
14294;SDS011;7231;59.370;18.016;2022-10-16T05:11:38;9.10;;;7.55;;
14294;SDS011;7231;59.370;18.016;2022-10-16T05:14:06;8.57;;;7.18;;
14294;SDS011;7231;59.370;18.016;2022-10-16T05:16:39;10.55;;;7.95;;
14294;SDS011;7231;59.370;18.016;2022-10-16T05:19:09;10.35;;;8.35;;
14294;SDS011;7231;59.370;18.016;2022-10-16T05:21:54;9.55;;;8.10;;
14294;SDS011;7231;59.370;18.016;2022-10-16T05:24:22;11.43;;;9.18;;
14294;SDS011;7231;59.370;18.016;2022-10-16T05:26:50;11.05;;;8.27;;
14294;SDS011;7231;59.370;18.016;2022-10-16T05:29:19;12.30;;;9.07;;
14294;SDS011;7231;59.370;18.016;2022-10-16T05:31:49;9.90;;;8.63;;
14294;SDS011;7231;59.370;18.016;2022-10-16T05:34:19;10.23;;;9.15;;
14294;SDS011;7231;59.370;18.016;2022-10-16T05:36:48;12.98;;;8.63;;
14294;SDS011;7231;59.370;18.016;2022-10-16T05:39:16;13.07;;;9.40;;
14294;SDS011;7231;59.370;18.016;2022-10-16T05:41:44;12.10;;;9.50;;
14294;SDS011;7231;59.370;18.016;2022-10-16T05:44:12;11.98;;;9.38;;
14294;SDS011;7231;59.370;18.016;2022-10-16T05:46:41;14.70;;;9.98;;
14294;SDS011;7231;59.370;18.016;2022-10-16T05:49:09;11.95;;;10.10;;
14294;SDS011;7231;59.370;18.016;2022-10-16T05:51:38;12.98;;;9.75;;
14294;SDS011;7231;59.370;18.016;2022-10-16T05:54:06;16.33;;;10.27;;
14294;SDS011;7231;59.370;18.016;2022-10-16T05:56:34;14.48;;;10.20;;
14294;SDS011;7231;59.370;18.016;2022-10-16T05:59:02;16.25;;;10.93;;
14294;SDS011;7231;59.370;18.016;2022-10-16T06:01:31;16.88;;;11.05;;
14294;SDS011;7231;59.370;18.016;2022-10-16T06:03:59;14.40;;;11.13;;
14294;SDS011;7231;59.370;18.016;2022-10-16T06:06:27;15.10;;;11.40;;
14294;SDS011;7231;59.370;18.016;2022-10-16T06:08:57;14.68;;;10.80;;
14294;SDS011;7231;59.370;18.016;2022-10-16T06:11:27;14.55;;;11.55;;
14294;SDS011;7231;59.370;18.016;2022-10-16T06:13:57;15.80;;;11.63;;
14294;SDS011;7231;59.370;18.016;2022-10-16T06:16:28;18.27;;;11.73;;
14294;SDS011;7231;59.370;18.016;2022-10-16T06:18:56;19.05;;;12.40;;
14294;SDS011;7231;59.370;18.016;2022-10-16T06:21:26;16.00;;;12.45;;
14294;SDS011;7231;59.370;18.016;2022-10-16T06:23:55;17.27;;;13.40;;
14294;SDS011;7231;59.370;18.016;2022-10-16T06:26:25;16.65;;;13.75;;
14294;SDS011;7231;59.370;18.016;2022-10-16T06:28:54;18.58;;;13.68;;
14294;SDS011;7231;59.370;18.016;2022-10-16T06:31:23;17.95;;;13.90;;
14294;SDS011;7231;59.370;18.016;2022-10-16T06:33:53;19.73;;;13.38;;
14294;SDS011;7231;59.370;18.016;2022-10-16T06:36:22;18.02;;;13.65;;
14294;SDS011;7231;59.370;18.016;2022-10-16T06:38:51;19.90;;;14.80;;
14294;SDS011;7231;59.370;18.016;2022-10-16T06:41:21;21.15;;;14.90;;
14294;SDS011;7231;59.370;18.016;2022-10-16T06:43:50;19.60;;;14.95;;
14294;SDS011;7231;59.370;18.016;2022-10-16T06:46:19;20.40;;;14.68;;
14294;SDS011;7231;59.370;18.016;2022-10-16T06:48:49;17.88;;;14.13;;
14294;SDS011;7231;59.370;18.016;2022-10-16T06:51:17;19.33;;;14.60;;
14294;SDS011;7231;59.370;18.016;2022-10-16T06:53:46;22.48;;;15.35;;
14294;SDS011;7231;59.370;18.016;2022-10-16T06:56:33;17.40;;;14.02;;
14294;SDS011;7231;59.370;18.016;2022-10-16T06:59:02;18.90;;;13.23;;
14294;SDS011;7231;59.370;18.016;2022-10-16T07:01:31;17.83;;;13.88;;
14294;SDS011;7231;59.370;18.016;2022-10-16T07:04:00;16.67;;;12.90;;
14294;SDS011;7231;59.370;18.016;2022-10-16T07:06:30;18.05;;;13.82;;
14294;SDS011;7231;59.370;18.016;2022-10-16T07:09:00;17.10;;;13.70;;
14294;SDS011;7231;59.370;18.016;2022-10-16T07:11:30;18.38;;;13.50;;
14294;SDS011;7231;59.370;18.016;2022-10-16T07:13:59;15.50;;;12.85;;
14294;SDS011;7231;59.370;18.016;2022-10-16T07:16:27;14.10;;;11.77;;
14294;SDS011;7231;59.370;18.016;2022-10-16T07:18:57;14.77;;;11.68;;
14294;SDS011;7231;59.370;18.016;2022-10-16T07:21:27;12.60;;;10.95;;
14294;SDS011;7231;59.370;18.016;2022-10-16T07:23:57;15.95;;;11.77;;
14294;SDS011;7231;59.370;18.016;2022-10-16T07:26:28;15.45;;;11.75;;
14294;SDS011;7231;59.370;18.016;2022-10-16T07:28:59;13.38;;;10.82;;
14294;SDS011;7231;59.370;18.016;2022-10-16T07:31:28;14.02;;;11.05;;
14294;SDS011;7231;59.370;18.016;2022-10-16T07:33:57;15.57;;;11.45;;
14294;SDS011;7231;59.370;18.016;2022-10-16T07:36:26;12.35;;;10.07;;
14294;SDS011;7231;59.370;18.016;2022-10-16T07:38:54;14.23;;;9.23;;
14294;SDS011;7231;59.370;18.016;2022-10-16T07:41:25;10.68;;;9.00;;
14294;SDS011;7231;59.370;18.016;2022-10-16T07:43:54;10.00;;;8.82;;
14294;SDS011;7231;59.370;18.016;2022-10-16T07:46:25;9.65;;;8.65;;
14294;SDS011;7231;59.370;18.016;2022-10-16T07:48:54;9.38;;;8.30;;
14294;SDS011;7231;59.370;18.016;2022-10-16T07:51:23;10.80;;;8.10;;
14294;SDS011;7231;59.370;18.016;2022-10-16T07:53:52;9.18;;;8.00;;
14294;SDS011;7231;59.370;18.016;2022-10-16T07:56:20;10.23;;;7.35;;
14294;SDS011;7231;59.370;18.016;2022-10-16T07:58:49;8.05;;;7.00;;
14294;SDS011;7231;59.370;18.016;2022-10-16T08:01:17;9.73;;;6.75;;
14294;SDS011;7231;59.370;18.016;2022-10-16T08:03:48;8.18;;;6.60;;
14294;SDS011;7231;59.370;18.016;2022-10-16T08:06:18;7.55;;;6.75;;
14294;SDS011;7231;59.370;18.016;2022-10-16T08:08:53;7.55;;;6.50;;
14294;SDS011;7231;59.370;18.016;2022-10-16T08:11:21;8.35;;;6.47;;
14294;SDS011;7231;59.370;18.016;2022-10-16T08:13:50;9.75;;;6.57;;
14294;SDS011;7231;59.370;18.016;2022-10-16T08:16:17;7.07;;;6.32;;
14294;SDS011;7231;59.370;18.016;2022-10-16T08:18:45;10.40;;;6.88;;
14294;SDS011;7231;59.370;18.016;2022-10-16T08:21:18;6.68;;;5.60;;
14294;SDS011;7231;59.370;18.016;2022-10-16T08:23:47;6.28;;;5.47;;
14294;SDS011;7231;59.370;18.016;2022-10-16T08:26:23;6.50;;;5.38;;
14294;SDS011;7231;59.370;18.016;2022-10-16T08:28:53;5.78;;;5.18;;
14294;SDS011;7231;59.370;18.016;2022-10-16T08:31:21;5.28;;;4.57;;
14294;SDS011;7231;59.370;18.016;2022-10-16T08:33:51;5.93;;;4.82;;
14294;SDS011;7231;59.370;18.016;2022-10-16T08:36:19;6.20;;;4.88;;
14294;SDS011;7231;59.370;18.016;2022-10-16T08:38:47;6.00;;;5.05;;
14294;SDS011;7231;59.370;18.016;2022-10-16T08:41:19;5.68;;;4.60;;
14294;SDS011;7231;59.370;18.016;2022-10-16T08:44:03;6.65;;;4.53;;
14294;SDS011;7231;59.370;18.016;2022-10-16T08:46:48;5.93;;;3.95;;
14294;SDS011;7231;59.370;18.016;2022-10-16T08:49:30;6.50;;;4.50;;
14294;SDS011;7231;59.370;18.016;2022-10-16T08:51:59;4.45;;;3.95;;
14294;SDS011;7231;59.370;18.016;2022-10-16T08:54:28;4.80;;;4.00;;
14294;SDS011;7231;59.370;18.016;2022-10-16T08:57:00;6.53;;;4.20;;
14294;SDS011;7231;59.370;18.016;2022-10-16T08:59:36;4.40;;;4.00;;
14294;SDS011;7231;59.370;18.016;2022-10-16T09:02:08;4.07;;;3.67;;
14294;SDS011;7231;59.370;18.016;2022-10-16T09:04:58;4.70;;;3.83;;
14294;SDS011;7231;59.370;18.016;2022-10-16T09:07:39;6.03;;;3.83;;
14294;SDS011;7231;59.370;18.016;2022-10-16T09:10:21;4.57;;;3.67;;
14294;SDS011;7231;59.370;18.016;2022-10-16T09:13:02;5.05;;;3.45;;
14294;SDS011;7231;59.370;18.016;2022-10-16T09:15:43;4.97;;;3.53;;
14294;SDS011;7231;59.370;18.016;2022-10-16T09:18:19;6.25;;;3.47;;
14294;SDS011;7231;59.370;18.016;2022-10-16T09:21:00;5.90;;;3.30;;
14294;SDS011;7231;59.370;18.016;2022-10-16T09:23:36;7.30;;;3.67;;
14294;SDS011;7231;59.370;18.016;2022-10-16T09:26:05;6.32;;;3.15;;
14294;SDS011;7231;59.370;18.016;2022-10-16T09:28:38;7.30;;;3.20;;
14294;SDS011;7231;59.370;18.016;2022-10-16T09:31:08;6.82;;;3.28;;
14294;SDS011;7231;59.370;18.016;2022-10-16T09:33:42;7.88;;;2.95;;
14294;SDS011;7231;59.370;18.016;2022-10-16T09:36:14;4.18;;;2.63;;
14294;SDS011;7231;59.370;18.016;2022-10-16T09:38:42;4.18;;;3.10;;
14294;SDS011;7231;59.370;18.016;2022-10-16T09:41:13;4.82;;;2.83;;
14294;SDS011;7231;59.370;18.016;2022-10-16T09:43:48;8.48;;;3.20;;
14294;SDS011;7231;59.370;18.016;2022-10-16T09:46:21;3.97;;;3.08;;
14294;SDS011;7231;59.370;18.016;2022-10-16T09:48:54;3.38;;;2.70;;
14294;SDS011;7231;59.370;18.016;2022-10-16T09:51:26;6.70;;;3.13;;
14294;SDS011;7231;59.370;18.016;2022-10-16T09:53:56;3.08;;;2.60;;
14294;SDS011;7231;59.370;18.016;2022-10-16T09:56:26;8.52;;;2.70;;
14294;SDS011;7231;59.370;18.016;2022-10-16T09:58:56;4.07;;;2.60;;
14294;SDS011;7231;59.370;18.016;2022-10-16T10:01:27;4.95;;;3.10;;
14294;SDS011;7231;59.370;18.016;2022-10-16T10:03:58;4.00;;;2.65;;
14294;SDS011;7231;59.370;18.016;2022-10-16T10:06:32;5.55;;;3.17;;
14294;SDS011;7231;59.370;18.016;2022-10-16T10:09:05;5.50;;;2.47;;
14294;SDS011;7231;59.370;18.016;2022-10-16T10:11:42;4.93;;;2.63;;
14294;SDS011;7231;59.370;18.016;2022-10-16T10:14:15;5.25;;;2.53;;
14294;SDS011;7231;59.370;18.016;2022-10-16T10:16:46;7.32;;;2.58;;
14294;SDS011;7231;59.370;18.016;2022-10-16T10:19:16;5.20;;;2.13;;
14294;SDS011;7231;59.370;18.016;2022-10-16T10:21:46;3.55;;;2.30;;
14294;SDS011;7231;59.370;18.016;2022-10-16T10:24:15;3.60;;;2.38;;
14294;SDS011;7231;59.370;18.016;2022-10-16T10:26:48;3.85;;;2.25;;
14294;SDS011;7231;59.370;18.016;2022-10-16T10:29:31;4.43;;;2.80;;
14294;SDS011;7231;59.370;18.016;2022-10-16T10:32:12;7.15;;;2.92;;
14294;SDS011;7231;59.370;18.016;2022-10-16T10:35:00;4.60;;;2.85;;
14294;SDS011;7231;59.370;18.016;2022-10-16T10:37:42;4.00;;;2.55;;
14294;SDS011;7231;59.370;18.016;2022-10-16T10:40:29;3.78;;;2.75;;
14294;SDS011;7231;59.370;18.016;2022-10-16T10:43:06;4.78;;;2.90;;
14294;SDS011;7231;59.370;18.016;2022-10-16T10:45:44;4.43;;;2.55;;
14294;SDS011;7231;59.370;18.016;2022-10-16T10:48:21;4.85;;;2.42;;
14294;SDS011;7231;59.370;18.016;2022-10-16T10:51:00;7.47;;;2.28;;
14294;SDS011;7231;59.370;18.016;2022-10-16T10:53:35;3.50;;;2.60;;
14294;SDS011;7231;59.370;18.016;2022-10-16T10:56:14;5.68;;;2.72;;
14294;SDS011;7231;59.370;18.016;2022-10-16T10:58:55;4.45;;;2.25;;
14294;SDS011;7231;59.370;18.016;2022-10-16T11:01:37;5.68;;;2.42;;
14294;SDS011;7231;59.370;18.016;2022-10-16T11:07:19;6.60;;;2.35;;
14294;SDS011;7231;59.370;18.016;2022-10-16T11:09:53;4.43;;;2.00;;
14294;SDS011;7231;59.370;18.016;2022-10-16T11:12:25;5.57;;;2.15;;
14294;SDS011;7231;59.370;18.016;2022-10-16T11:14:58;6.43;;;2.30;;
14294;SDS011;7231;59.370;18.016;2022-10-16T11:17:32;5.80;;;2.40;;
14294;SDS011;7231;59.370;18.016;2022-10-16T11:20:11;2.42;;;1.85;;
14294;SDS011;7231;59.370;18.016;2022-10-16T11:22:42;4.80;;;2.30;;
14294;SDS011;7231;59.370;18.016;2022-10-16T11:25:17;7.93;;;2.72;;
14294;SDS011;7231;59.370;18.016;2022-10-16T11:27:50;5.28;;;2.38;;
14294;SDS011;7231;59.370;18.016;2022-10-16T11:30:22;4.85;;;2.00;;
14294;SDS011;7231;59.370;18.016;2022-10-16T11:32:56;6.07;;;2.28;;
14294;SDS011;7231;59.370;18.016;2022-10-16T11:35:34;5.53;;;2.17;;
14294;SDS011;7231;59.370;18.016;2022-10-16T11:38:09;3.95;;;2.03;;
14294;SDS011;7231;59.370;18.016;2022-10-16T11:40:45;4.28;;;2.33;;
14294;SDS011;7231;59.370;18.016;2022-10-16T11:43:19;6.05;;;2.22;;
14294;SDS011;7231;59.370;18.016;2022-10-16T11:45:51;5.07;;;2.00;;
14294;SDS011;7231;59.370;18.016;2022-10-16T11:48:23;4.63;;;2.05;;
14294;SDS011;7231;59.370;18.016;2022-10-16T11:50:58;4.05;;;2.17;;
14294;SDS011;7231;59.370;18.016;2022-10-16T11:53:37;3.38;;;2.10;;
14294;SDS011;7231;59.370;18.016;2022-10-16T11:56:15;5.55;;;2.08;;
14294;SDS011;7231;59.370;18.016;2022-10-16T11:58:50;7.80;;;2.53;;
14294;SDS011;7231;59.370;18.016;2022-10-16T12:01:27;4.70;;;2.20;;
14294;SDS011;7231;59.370;18.016;2022-10-16T12:04:04;5.68;;;2.30;;
14294;SDS011;7231;59.370;18.016;2022-10-16T12:06:42;4.05;;;2.28;;
14294;SDS011;7231;59.370;18.016;2022-10-16T12:09:17;4.40;;;2.10;;
14294;SDS011;7231;59.370;18.016;2022-10-16T12:11:50;5.22;;;2.35;;
14294;SDS011;7231;59.370;18.016;2022-10-16T12:14:20;6.18;;;2.38;;
14294;SDS011;7231;59.370;18.016;2022-10-16T12:17:23;4.68;;;2.25;;
14294;SDS011;7231;59.370;18.016;2022-10-16T12:19:57;5.40;;;2.30;;
14294;SDS011;7231;59.370;18.016;2022-10-16T12:22:27;3.30;;;2.15;;
14294;SDS011;7231;59.370;18.016;2022-10-16T12:24:56;5.85;;;2.25;;
14294;SDS011;7231;59.370;18.016;2022-10-16T12:27:27;4.40;;;2.45;;
14294;SDS011;7231;59.370;18.016;2022-10-16T12:29:57;4.75;;;2.40;;
14294;SDS011;7231;59.370;18.016;2022-10-16T12:32:28;4.38;;;2.42;;
14294;SDS011;7231;59.370;18.016;2022-10-16T12:35:18;6.78;;;2.67;;
14294;SDS011;7231;59.370;18.016;2022-10-16T12:37:48;4.88;;;2.30;;
14294;SDS011;7231;59.370;18.016;2022-10-16T12:40:23;6.10;;;2.58;;
14294;SDS011;7231;59.370;18.016;2022-10-16T12:42:55;7.43;;;2.60;;
14294;SDS011;7231;59.370;18.016;2022-10-16T12:45:28;6.97;;;2.70;;
14294;SDS011;7231;59.370;18.016;2022-10-16T12:47:58;5.50;;;2.35;;
14294;SDS011;7231;59.370;18.016;2022-10-16T12:50:29;3.92;;;2.47;;
14294;SDS011;7231;59.370;18.016;2022-10-16T12:53:00;3.88;;;2.33;;
14294;SDS011;7231;59.370;18.016;2022-10-16T12:55:32;4.80;;;2.25;;
14294;SDS011;7231;59.370;18.016;2022-10-16T12:58:16;5.60;;;2.60;;
14294;SDS011;7231;59.370;18.016;2022-10-16T13:01:01;3.85;;;2.38;;
14294;SDS011;7231;59.370;18.016;2022-10-16T13:03:43;2.47;;;2.03;;
14294;SDS011;7231;59.370;18.016;2022-10-16T13:06:27;3.17;;;1.80;;
14294;SDS011;7231;59.370;18.016;2022-10-16T13:09:15;4.13;;;2.10;;
14294;SDS011;7231;59.370;18.016;2022-10-16T13:12:02;3.90;;;2.05;;
14294;SDS011;7231;59.370;18.016;2022-10-16T13:14:44;3.28;;;1.90;;
14294;SDS011;7231;59.370;18.016;2022-10-16T13:17:28;3.53;;;1.83;;
14294;SDS011;7231;59.370;18.016;2022-10-16T13:20:06;3.58;;;2.08;;
14294;SDS011;7231;59.370;18.016;2022-10-16T13:22:47;4.10;;;1.80;;
14294;SDS011;7231;59.370;18.016;2022-10-16T13:25:25;3.72;;;1.70;;
14294;SDS011;7231;59.370;18.016;2022-10-16T13:28:00;4.47;;;1.85;;
14294;SDS011;7231;59.370;18.016;2022-10-16T13:30:31;2.92;;;1.67;;
14294;SDS011;7231;59.370;18.016;2022-10-16T13:33:06;3.17;;;1.95;;
14294;SDS011;7231;59.370;18.016;2022-10-16T13:35:46;4.28;;;1.98;;
14294;SDS011;7231;59.370;18.016;2022-10-16T13:38:17;2.60;;;1.70;;
14294;SDS011;7231;59.370;18.016;2022-10-16T13:40:53;4.45;;;2.17;;
14294;SDS011;7231;59.370;18.016;2022-10-16T13:43:24;4.57;;;2.25;;
14294;SDS011;7231;59.370;18.016;2022-10-16T13:45:57;5.82;;;2.15;;
14294;SDS011;7231;59.370;18.016;2022-10-16T13:48:26;5.22;;;2.08;;
14294;SDS011;7231;59.370;18.016;2022-10-16T13:51:01;3.45;;;1.77;;
14294;SDS011;7231;59.370;18.016;2022-10-16T13:53:34;3.20;;;1.90;;
14294;SDS011;7231;59.370;18.016;2022-10-16T13:56:04;4.32;;;2.20;;
14294;SDS011;7231;59.370;18.016;2022-10-16T13:58:33;3.60;;;1.88;;
14294;SDS011;7231;59.370;18.016;2022-10-16T14:01:03;2.90;;;1.83;;
14294;SDS011;7231;59.370;18.016;2022-10-16T14:03:33;3.33;;;1.70;;
14294;SDS011;7231;59.370;18.016;2022-10-16T14:06:03;3.13;;;1.80;;
14294;SDS011;7231;59.370;18.016;2022-10-16T14:08:35;4.25;;;1.80;;
14294;SDS011;7231;59.370;18.016;2022-10-16T14:11:03;5.68;;;1.98;;
14294;SDS011;7231;59.370;18.016;2022-10-16T14:13:31;3.08;;;1.70;;
14294;SDS011;7231;59.370;18.016;2022-10-16T14:16:07;5.15;;;1.85;;
14294;SDS011;7231;59.370;18.016;2022-10-16T14:18:38;4.45;;;2.30;;
14294;SDS011;7231;59.370;18.016;2022-10-16T14:21:11;4.55;;;1.90;;
14294;SDS011;7231;59.370;18.016;2022-10-16T14:23:41;8.35;;;2.20;;
14294;SDS011;7231;59.370;18.016;2022-10-16T14:26:14;3.13;;;1.55;;
14294;SDS011;7231;59.370;18.016;2022-10-16T14:28:44;2.80;;;1.80;;
14294;SDS011;7231;59.370;18.016;2022-10-16T14:31:24;6.15;;;1.88;;
14294;SDS011;7231;59.370;18.016;2022-10-16T14:33:57;5.18;;;2.33;;
14294;SDS011;7231;59.370;18.016;2022-10-16T14:36:25;6.03;;;2.03;;
14294;SDS011;7231;59.370;18.016;2022-10-16T14:38:57;5.57;;;2.20;;
14294;SDS011;7231;59.370;18.016;2022-10-16T14:41:28;5.53;;;1.88;;
14294;SDS011;7231;59.370;18.016;2022-10-16T14:44:00;7.97;;;2.03;;
14294;SDS011;7231;59.370;18.016;2022-10-16T14:46:33;5.05;;;1.92;;
14294;SDS011;7231;59.370;18.016;2022-10-16T14:49:04;3.95;;;1.70;;
14294;SDS011;7231;59.370;18.016;2022-10-16T14:51:45;6.75;;;2.05;;
14294;SDS011;7231;59.370;18.016;2022-10-16T14:54:15;4.30;;;2.15;;
14294;SDS011;7231;59.370;18.016;2022-10-16T14:56:46;3.83;;;2.00;;
14294;SDS011;7231;59.370;18.016;2022-10-16T14:59:17;4.55;;;1.67;;
14294;SDS011;7231;59.370;18.016;2022-10-16T15:01:52;5.70;;;1.95;;
14294;SDS011;7231;59.370;18.016;2022-10-16T15:04:20;5.47;;;2.28;;
14294;SDS011;7231;59.370;18.016;2022-10-16T15:06:48;6.57;;;2.28;;